PWSweather.com
Personal Weather Stations
Station Observations
WATERF01
WaterfordIE

WaterfordIE

Lat: 52.2412507, Lon: -7.1414691

Elevation: 65

Station Type: Davis Vantage Vue

www.waterfordweather.com

High Low Average
Temperature 54.5°F12.5°C 42.2°F5.7°C 49.7°F9.8°C
Dew Point 52.5°F11.4°C 40.9°F4.9°C 48.0°F8.9°C
Winds 13.8 mph 22.2 kmh Calm Calm 4.0 mph W6.4 kmh W
Wind Gusts 20.7 mph33.3 kmh -- 7.0 mph11.3 kmh
Humidity 96% 91% 94%
Pressure 30.29 in1025.7 mb 30.07 in1018.3 mb -
Precipitation 0.00 in0.0 mm - -
Hour Temp Dew Point Humidity Winds Wind Gusts Pressure Precip Precip Rate Daily Precip Total
12:00 AM 43.0°F6.1°C 41.7°F5.4°C 95% Calm Calm -- 30.25 in1024.4 mb - 0.00 in0.0 mm 0.00 in0.0 mm
12:10 AM 42.9°F6.1°C 41.6°F5.3°C 95% Calm Calm -- 30.24 in1024.0 mb - 0.00 in0.0 mm 0.00 in0.0 mm
12:20 AM 42.4°F5.8°C 41.1°F5.1°C 95% Calm Calm -- 30.25 in1024.4 mb - 0.00 in0.0 mm 0.00 in0.0 mm
12:30 AM 42.4°F5.8°C 41.0°F5.0°C 95% Calm Calm -- 30.25 in1024.4 mb - 0.00 in0.0 mm 0.00 in0.0 mm
12:40 AM 42.2°F5.7°C 40.9°F4.9°C 95% 1.2 mph S1.9 kmh S 2.3 mph3.7 kmh 30.25 in1024.4 mb - 0.00 in0.0 mm 0.00 in0.0 mm
12:50 AM 42.3°F5.7°C 41.0°F5.0°C 95% Calm Calm -- 30.25 in1024.4 mb - 0.00 in0.0 mm 0.00 in0.0 mm
01:00 AM 42.6°F5.9°C 41.3°F5.2°C 95% Calm Calm -- 30.24 in1024.0 mb - 0.00 in0.0 mm 0.00 in0.0 mm
01:10 AM 43.5°F6.4°C 42.4°F5.8°C 96% Calm Calm 2.3 mph3.7 kmh 30.24 in1024.0 mb - 0.00 in0.0 mm 0.00 in0.0 mm
01:20 AM 43.8°F6.6°C 42.7°F5.9°C 96% 3.5 mph E5.6 kmh E 6.9 mph11.1 kmh 30.24 in1024.0 mb - 0.00 in0.0 mm 0.00 in0.0 mm
01:30 AM 44.6°F7.0°C 43.3°F6.3°C 95% 3.5 mph WNW5.6 kmh WNW 5.8 mph9.3 kmh 30.23 in1023.7 mb - 0.00 in0.0 mm 0.00 in0.0 mm
01:40 AM 44.9°F7.2°C 43.6°F6.4°C 95% 3.5 mph WSW5.6 kmh WSW 5.8 mph9.3 kmh 30.23 in1023.7 mb - 0.00 in0.0 mm 0.00 in0.0 mm
01:50 AM 45.0°F7.2°C 43.7°F6.5°C 95% 3.5 mph NW5.6 kmh NW 5.8 mph9.3 kmh 30.23 in1023.7 mb - 0.00 in0.0 mm 0.00 in0.0 mm
02:00 AM 45.2°F7.3°C 43.6°F6.4°C 94% 4.6 mph SW7.4 kmh SW 8.1 mph13.0 kmh 30.23 in1023.7 mb - 0.00 in0.0 mm 0.00 in0.0 mm
02:10 AM 45.3°F7.4°C 43.7°F6.5°C 94% 3.5 mph WNW5.6 kmh WNW 5.8 mph9.3 kmh 30.23 in1023.7 mb - 0.00 in0.0 mm 0.00 in0.0 mm
02:20 AM 45.5°F7.5°C 43.9°F6.6°C 94% 3.5 mph WSW5.6 kmh WSW 6.9 mph11.1 kmh 30.23 in1023.7 mb - 0.00 in0.0 mm 0.00 in0.0 mm
02:30 AM 45.6°F7.6°C 44.0°F6.7°C 94% 2.3 mph SW3.7 kmh SW 5.8 mph9.3 kmh 30.23 in1023.7 mb - 0.00 in0.0 mm 0.00 in0.0 mm
02:40 AM 45.6°F7.6°C 44.0°F6.7°C 94% 1.2 mph SW1.9 kmh SW 2.3 mph3.7 kmh 30.23 in1023.7 mb - 0.00 in0.0 mm 0.00 in0.0 mm
02:50 AM 45.5°F7.5°C 43.9°F6.6°C 94% Calm Calm 4.6 mph7.4 kmh 30.23 in1023.7 mb - 0.00 in0.0 mm 0.00 in0.0 mm
03:00 AM 45.6°F7.6°C 44.0°F6.7°C 94% 3.5 mph WNW5.6 kmh WNW 5.8 mph9.3 kmh 30.23 in1023.7 mb - 0.00 in0.0 mm 0.00 in0.0 mm
03:10 AM 45.9°F7.7°C 44.3°F6.8°C 94% 1.2 mph W1.9 kmh W 5.8 mph9.3 kmh 30.22 in1023.4 mb - 0.00 in0.0 mm 0.00 in0.0 mm
03:20 AM 46.2°F7.9°C 44.6°F7.0°C 94% 3.5 mph SW5.6 kmh SW 5.8 mph9.3 kmh 30.22 in1023.4 mb - 0.00 in0.0 mm 0.00 in0.0 mm
03:30 AM 46.4°F8.0°C 44.8°F7.1°C 94% 1.2 mph SW1.9 kmh SW 2.3 mph3.7 kmh 30.21 in1023.0 mb - 0.00 in0.0 mm 0.00 in0.0 mm
03:40 AM 46.4°F8.0°C 44.8°F7.1°C 94% 2.3 mph S3.7 kmh S 5.8 mph9.3 kmh 30.21 in1023.0 mb - 0.00 in0.0 mm 0.00 in0.0 mm
03:50 AM 46.9°F8.3°C 45.3°F7.4°C 94% 4.6 mph WNW7.4 kmh WNW 5.8 mph9.3 kmh 30.21 in1023.0 mb - 0.00 in0.0 mm 0.00 in0.0 mm
04:00 AM 47.5°F8.6°C 45.8°F7.7°C 94% 3.5 mph WSW5.6 kmh WSW 5.8 mph9.3 kmh 30.21 in1023.0 mb - 0.00 in0.0 mm 0.00 in0.0 mm
04:10 AM 47.6°F8.7°C 46.0°F7.8°C 94% 4.6 mph WSW7.4 kmh WSW 6.9 mph11.1 kmh 30.21 in1023.0 mb - 0.00 in0.0 mm 0.00 in0.0 mm
04:20 AM 47.7°F8.7°C 46.1°F7.8°C 94% 3.5 mph NE5.6 kmh NE 8.1 mph13.0 kmh 30.20 in1022.7 mb - 0.00 in0.0 mm 0.00 in0.0 mm
04:30 AM 47.8°F8.8°C 46.2°F7.9°C 94% 5.8 mph WSW9.3 kmh WSW 9.2 mph14.8 kmh 30.20 in1022.7 mb - 0.00 in0.0 mm 0.00 in0.0 mm
04:40 AM 47.9°F8.8°C 46.3°F7.9°C 94% 3.5 mph W5.6 kmh W 5.8 mph9.3 kmh 30.20 in1022.7 mb - 0.00 in0.0 mm 0.00 in0.0 mm
04:50 AM 48.0°F8.9°C 46.4°F8.0°C 94% 5.8 mph WSW9.3 kmh WSW 8.1 mph13.0 kmh 30.19 in1022.4 mb - 0.00 in0.0 mm 0.00 in0.0 mm
05:00 AM 48.2°F9.0°C 46.6°F8.1°C 94% 5.8 mph WSW9.3 kmh WSW 8.1 mph13.0 kmh 30.19 in1022.4 mb - 0.00 in0.0 mm 0.00 in0.0 mm
05:10 AM 48.2°F9.0°C 46.6°F8.1°C 94% 4.6 mph WSW7.4 kmh WSW 6.9 mph11.1 kmh 30.19 in1022.4 mb - 0.00 in0.0 mm 0.00 in0.0 mm
05:20 AM 48.2°F9.0°C 46.8°F8.2°C 95% 2.3 mph SE3.7 kmh SE 5.8 mph9.3 kmh 30.18 in1022.0 mb - 0.00 in0.0 mm 0.00 in0.0 mm
05:30 AM 48.1°F8.9°C 46.7°F8.2°C 95% 3.5 mph WSW5.6 kmh WSW 6.9 mph11.1 kmh 30.18 in1022.0 mb - 0.00 in0.0 mm 0.00 in0.0 mm
05:40 AM 48.3°F9.1°C 46.9°F8.3°C 95% 3.5 mph WSW5.6 kmh WSW 8.1 mph13.0 kmh 30.18 in1022.0 mb - 0.00 in0.0 mm 0.00 in0.0 mm
05:50 AM 48.5°F9.2°C 47.1°F8.4°C 95% 3.5 mph NW5.6 kmh NW 8.1 mph13.0 kmh 30.17 in1021.7 mb - 0.00 in0.0 mm 0.00 in0.0 mm
06:00 AM 48.7°F9.3°C 47.3°F8.5°C 95% 3.5 mph WSW5.6 kmh WSW 6.9 mph11.1 kmh 30.17 in1021.7 mb - 0.00 in0.0 mm 0.00 in0.0 mm
06:10 AM 48.9°F9.4°C 47.5°F8.6°C 95% 5.8 mph WSW9.3 kmh WSW 12.7 mph20.4 kmh 30.17 in1021.7 mb - 0.00 in0.0 mm 0.00 in0.0 mm
06:20 AM 49.2°F9.6°C 47.8°F8.8°C 95% 5.8 mph W9.3 kmh W 11.5 mph18.5 kmh 30.16 in1021.3 mb - 0.00 in0.0 mm 0.00 in0.0 mm
06:30 AM 49.3°F9.6°C 47.9°F8.8°C 95% 5.8 mph WSW9.3 kmh WSW 13.8 mph22.2 kmh 30.16 in1021.3 mb - 0.00 in0.0 mm 0.00 in0.0 mm
06:40 AM 49.4°F9.7°C 47.7°F8.7°C 94% 5.8 mph WSW9.3 kmh WSW 13.8 mph22.2 kmh 30.15 in1021.0 mb - 0.00 in0.0 mm 0.00 in0.0 mm
06:50 AM 49.4°F9.7°C 47.7°F8.7°C 94% 6.9 mph WSW11.1 kmh WSW 13.8 mph22.2 kmh 30.14 in1020.7 mb - 0.00 in0.0 mm 0.00 in0.0 mm
07:00 AM 49.4°F9.7°C 47.7°F8.7°C 94% 8.1 mph SW13.0 kmh SW 13.8 mph22.2 kmh 30.15 in1021.0 mb - 0.00 in0.0 mm 0.00 in0.0 mm
07:10 AM 49.4°F9.7°C 47.7°F8.7°C 94% 4.6 mph WNW7.4 kmh WNW 9.2 mph14.8 kmh 30.14 in1020.7 mb - 0.00 in0.0 mm 0.00 in0.0 mm
07:20 AM 49.3°F9.6°C 47.6°F8.7°C 94% 4.6 mph SSW7.4 kmh SSW 12.7 mph20.4 kmh 30.12 in1020.0 mb - 0.00 in0.0 mm 0.00 in0.0 mm
07:30 AM 49.4°F9.7°C 47.7°F8.7°C 94% 9.2 mph SW14.8 kmh SW 13.8 mph22.2 kmh 30.11 in1019.6 mb - 0.00 in0.0 mm 0.00 in0.0 mm
07:40 AM 49.5°F9.7°C 47.8°F8.8°C 94% 13.8 mph WSW22.2 kmh WSW 20.7 mph33.3 kmh 30.07 in1018.3 mb - 0.00 in0.0 mm 0.00 in0.0 mm
07:50 AM 49.8°F9.9°C 48.5°F9.2°C 95% 9.2 mph W14.8 kmh W 15.0 mph24.1 kmh 30.14 in1020.7 mb - 0.00 in0.0 mm 0.00 in0.0 mm
08:00 AM 50.1°F10.1°C 48.4°F9.1°C 94% 11.5 mph W18.5 kmh W 20.7 mph33.3 kmh 30.12 in1020.0 mb - 0.00 in0.0 mm 0.00 in0.0 mm
08:10 AM 50.1°F10.1°C 48.4°F9.1°C 94% 9.2 mph WSW14.8 kmh WSW 20.7 mph33.3 kmh 30.13 in1020.3 mb - 0.00 in0.0 mm 0.00 in0.0 mm
08:20 AM 50.2°F10.1°C 48.5°F9.2°C 94% 10.4 mph WSW16.7 kmh WSW 16.1 mph25.9 kmh 30.14 in1020.7 mb - 0.00 in0.0 mm 0.00 in0.0 mm
08:30 AM 50.2°F10.1°C 48.8°F9.3°C 95% 4.6 mph W7.4 kmh W 12.7 mph20.4 kmh 30.15 in1021.0 mb - 0.00 in0.0 mm 0.00 in0.0 mm
08:40 AM 50.2°F10.1°C 48.8°F9.3°C 95% 5.8 mph W9.3 kmh W 11.5 mph18.5 kmh 30.15 in1021.0 mb - 0.00 in0.0 mm 0.00 in0.0 mm
08:50 AM 50.1°F10.1°C 48.7°F9.3°C 95% 4.6 mph W7.4 kmh W 6.9 mph11.1 kmh 30.15 in1021.0 mb - 0.00 in0.0 mm 0.00 in0.0 mm
09:00 AM 50.1°F10.1°C 48.7°F9.3°C 95% 4.6 mph WSW7.4 kmh WSW 8.1 mph13.0 kmh 30.15 in1021.0 mb - 0.00 in0.0 mm 0.00 in0.0 mm
09:10 AM 50.1°F10.1°C 48.7°F9.3°C 95% 3.5 mph WSW5.6 kmh WSW 5.8 mph9.3 kmh 30.15 in1021.0 mb - 0.00 in0.0 mm 0.00 in0.0 mm
09:20 AM 50.2°F10.1°C 48.8°F9.3°C 95% 4.6 mph WSW7.4 kmh WSW 9.2 mph14.8 kmh 30.15 in1021.0 mb - 0.00 in0.0 mm 0.00 in0.0 mm
09:30 AM 50.3°F10.2°C 48.9°F9.4°C 95% 4.6 mph W7.4 kmh W 5.8 mph9.3 kmh 30.16 in1021.3 mb - 0.00 in0.0 mm 0.00 in0.0 mm
09:40 AM 50.5°F10.3°C 49.1°F9.5°C 95% 4.6 mph WSW7.4 kmh WSW 8.1 mph13.0 kmh 30.15 in1021.0 mb - 0.00 in0.0 mm 0.00 in0.0 mm
09:50 AM 50.9°F10.5°C 49.5°F9.7°C 95% 4.6 mph WSW7.4 kmh WSW 10.4 mph16.7 kmh 30.15 in1021.0 mb - 0.00 in0.0 mm 0.00 in0.0 mm
10:00 AM 51.2°F10.7°C 49.8°F9.9°C 95% 5.8 mph W9.3 kmh W 13.8 mph22.2 kmh 30.15 in1021.0 mb - 0.00 in0.0 mm 0.00 in0.0 mm
10:10 AM 51.5°F10.8°C 49.8°F9.9°C 94% 6.9 mph W11.1 kmh W 8.1 mph13.0 kmh 30.15 in1021.0 mb - 0.00 in0.0 mm 0.00 in0.0 mm
10:20 AM 51.6°F10.9°C 49.9°F9.9°C 94% 4.6 mph WSW7.4 kmh WSW 8.1 mph13.0 kmh 30.14 in1020.7 mb - 0.00 in0.0 mm 0.00 in0.0 mm
10:30 AM 51.7°F10.9°C 50.0°F10.0°C 94% 6.9 mph WSW11.1 kmh WSW 11.5 mph18.5 kmh 30.15 in1021.0 mb - 0.00 in0.0 mm 0.00 in0.0 mm
10:40 AM 51.7°F10.9°C 50.0°F10.0°C 94% 4.6 mph W7.4 kmh W 8.1 mph13.0 kmh 30.15 in1021.0 mb - 0.00 in0.0 mm 0.00 in0.0 mm
10:50 AM 51.7°F10.9°C 50.0°F10.0°C 94% 6.9 mph WNW11.1 kmh WNW 11.5 mph18.5 kmh 30.15 in1021.0 mb - 0.00 in0.0 mm 0.00 in0.0 mm
11:00 AM 51.8°F11.0°C 50.1°F10.1°C 94% 6.9 mph W11.1 kmh W 11.5 mph18.5 kmh 30.15 in1021.0 mb - 0.00 in0.0 mm 0.00 in0.0 mm
11:10 AM 52.1°F11.2°C 50.4°F10.2°C 94% 8.1 mph WSW13.0 kmh WSW 11.5 mph18.5 kmh 30.15 in1021.0 mb - 0.00 in0.0 mm 0.00 in0.0 mm
11:20 AM 52.2°F11.2°C 50.5°F10.3°C 94% 6.9 mph WSW11.1 kmh WSW 11.5 mph18.5 kmh 30.15 in1021.0 mb - 0.00 in0.0 mm 0.00 in0.0 mm
11:30 AM 52.4°F11.3°C 50.7°F10.4°C 94% 4.6 mph WSW7.4 kmh WSW 11.5 mph18.5 kmh 30.14 in1020.7 mb - 0.00 in0.0 mm 0.00 in0.0 mm
11:40 AM 52.5°F11.4°C 50.8°F10.4°C 94% 4.6 mph WNW7.4 kmh WNW 11.5 mph18.5 kmh 30.14 in1020.7 mb - 0.00 in0.0 mm 0.00 in0.0 mm
11:50 AM 52.6°F11.4°C 50.9°F10.5°C 94% 5.8 mph SSE9.3 kmh SSE 11.5 mph18.5 kmh 30.13 in1020.3 mb - 0.00 in0.0 mm 0.00 in0.0 mm
12:00 PM 52.8°F11.6°C 51.1°F10.6°C 94% 3.5 mph SW5.6 kmh SW 8.1 mph13.0 kmh 30.13 in1020.3 mb - 0.00 in0.0 mm 0.00 in0.0 mm
12:10 PM 53.0°F11.7°C 51.3°F10.7°C 94% 2.3 mph W3.7 kmh W 5.8 mph9.3 kmh 30.13 in1020.3 mb - 0.00 in0.0 mm 0.00 in0.0 mm
12:20 PM 53.2°F11.8°C 51.5°F10.8°C 94% 2.3 mph WSW3.7 kmh WSW 5.8 mph9.3 kmh 30.13 in1020.3 mb - 0.00 in0.0 mm 0.00 in0.0 mm
12:30 PM 53.4°F11.9°C 51.7°F10.9°C 94% 2.3 mph SW3.7 kmh SW 5.8 mph9.3 kmh 30.12 in1020.0 mb - 0.00 in0.0 mm 0.00 in0.0 mm
12:40 PM 53.5°F11.9°C 51.5°F10.8°C 93% 4.6 mph SSW7.4 kmh SSW 9.2 mph14.8 kmh 30.12 in1020.0 mb - 0.00 in0.0 mm 0.00 in0.0 mm
12:50 PM 53.6°F12.0°C 51.6°F10.9°C 93% 4.6 mph WSW7.4 kmh WSW 6.9 mph11.1 kmh 30.12 in1020.0 mb - 0.00 in0.0 mm 0.00 in0.0 mm
01:00 PM 53.4°F11.9°C 51.4°F10.8°C 93% 4.6 mph WSW7.4 kmh WSW 8.1 mph13.0 kmh 30.11 in1019.6 mb - 0.00 in0.0 mm 0.00 in0.0 mm
01:10 PM 53.4°F11.9°C 51.7°F10.9°C 94% 3.5 mph WSW5.6 kmh WSW 8.1 mph13.0 kmh 30.11 in1019.6 mb - 0.00 in0.0 mm 0.00 in0.0 mm
01:20 PM 53.4°F11.9°C 51.7°F10.9°C 94% 6.9 mph WSW11.1 kmh WSW 8.1 mph13.0 kmh 30.12 in1020.0 mb - 0.00 in0.0 mm 0.00 in0.0 mm
01:30 PM 53.3°F11.8°C 51.6°F10.9°C 94% 4.6 mph WSW7.4 kmh WSW 9.2 mph14.8 kmh 30.11 in1019.6 mb - 0.00 in0.0 mm 0.00 in0.0 mm
01:40 PM 53.2°F11.8°C 51.5°F10.8°C 94% 2.3 mph NW3.7 kmh NW 5.8 mph9.3 kmh 30.11 in1019.6 mb - 0.00 in0.0 mm 0.00 in0.0 mm
01:50 PM 53.2°F11.8°C 51.5°F10.8°C 94% 3.5 mph W5.6 kmh W 5.8 mph9.3 kmh 30.11 in1019.6 mb - 0.00 in0.0 mm 0.00 in0.0 mm
02:00 PM 53.1°F11.7°C 51.4°F10.8°C 94% 3.5 mph W5.6 kmh W 8.1 mph13.0 kmh 30.10 in1019.3 mb - 0.00 in0.0 mm 0.00 in0.0 mm
02:10 PM 53.1°F11.7°C 51.4°F10.8°C 94% 4.6 mph WSW7.4 kmh WSW 8.1 mph13.0 kmh 30.10 in1019.3 mb - 0.00 in0.0 mm 0.00 in0.0 mm
02:20 PM 53.2°F11.8°C 51.5°F10.8°C 94% 3.5 mph WNW5.6 kmh WNW 8.1 mph13.0 kmh 30.11 in1019.6 mb - 0.00 in0.0 mm 0.00 in0.0 mm
02:30 PM 53.2°F11.8°C 51.5°F10.8°C 94% 2.3 mph W3.7 kmh W 8.1 mph13.0 kmh 30.11 in1019.6 mb - 0.00 in0.0 mm 0.00 in0.0 mm
02:40 PM 53.2°F11.8°C 51.5°F10.8°C 94% Calm Calm 4.6 mph7.4 kmh 30.11 in1019.6 mb - 0.00 in0.0 mm 0.00 in0.0 mm
02:50 PM 53.2°F11.8°C 51.5°F10.8°C 94% 1.2 mph WNW1.9 kmh WNW 2.3 mph3.7 kmh 30.12 in1020.0 mb - 0.00 in0.0 mm 0.00 in0.0 mm
03:00 PM 53.3°F11.8°C 51.6°F10.9°C 94% Calm Calm -- 30.11 in1019.6 mb - 0.00 in0.0 mm 0.00 in0.0 mm
03:10 PM 53.4°F11.9°C 51.7°F10.9°C 94% Calm Calm -- 30.12 in1020.0 mb - 0.00 in0.0 mm 0.00 in0.0 mm
03:20 PM 53.6°F12.0°C 51.9°F11.1°C 94% Calm Calm -- 30.12 in1020.0 mb - 0.00 in0.0 mm 0.00 in0.0 mm
03:30 PM 53.7°F12.1°C 52.0°F11.1°C 94% 1.2 mph NW1.9 kmh NW 2.3 mph3.7 kmh 30.12 in1020.0 mb - 0.00 in0.0 mm 0.00 in0.0 mm
03:40 PM 54.0°F12.2°C 52.3°F11.3°C 94% Calm Calm -- 30.12 in1020.0 mb - 0.00 in0.0 mm 0.00 in0.0 mm
03:50 PM 54.2°F12.3°C 52.5°F11.4°C 94% Calm Calm -- 30.11 in1019.6 mb - 0.00 in0.0 mm 0.00 in0.0 mm
04:00 PM 54.2°F12.3°C 52.5°F11.4°C 94% 4.6 mph NW7.4 kmh NW 5.8 mph9.3 kmh 30.12 in1020.0 mb - 0.00 in0.0 mm 0.00 in0.0 mm
04:10 PM 54.3°F12.4°C 52.3°F11.3°C 93% 3.5 mph NW5.6 kmh NW 5.8 mph9.3 kmh 30.13 in1020.3 mb - 0.00 in0.0 mm 0.00 in0.0 mm
04:20 PM 54.5°F12.5°C 52.5°F11.4°C 93% 4.6 mph NW7.4 kmh NW 6.9 mph11.1 kmh 30.13 in1020.3 mb - 0.00 in0.0 mm 0.00 in0.0 mm
04:30 PM 54.1°F12.3°C 52.1°F11.2°C 93% 6.9 mph NW11.1 kmh NW 12.7 mph20.4 kmh 30.13 in1020.3 mb - 0.00 in0.0 mm 0.00 in0.0 mm
04:40 PM 53.6°F12.0°C 51.6°F10.9°C 93% 4.6 mph NW7.4 kmh NW 9.2 mph14.8 kmh 30.14 in1020.7 mb - 0.00 in0.0 mm 0.00 in0.0 mm
04:50 PM 53.4°F11.9°C 51.4°F10.8°C 93% 6.9 mph NW11.1 kmh NW 8.1 mph13.0 kmh 30.15 in1021.0 mb - 0.00 in0.0 mm 0.00 in0.0 mm
05:00 PM 53.2°F11.8°C 51.2°F10.7°C 93% 5.8 mph WNW9.3 kmh WNW 11.5 mph18.5 kmh 30.14 in1020.7 mb - 0.00 in0.0 mm 0.00 in0.0 mm
05:10 PM 52.9°F11.6°C 50.6°F10.3°C 92% 6.9 mph NW11.1 kmh NW 11.5 mph18.5 kmh 30.14 in1020.7 mb - 0.00 in0.0 mm 0.00 in0.0 mm
05:20 PM 52.6°F11.4°C 50.3°F10.2°C 92% 5.8 mph NW9.3 kmh NW 11.5 mph18.5 kmh 30.15 in1021.0 mb - 0.00 in0.0 mm 0.00 in0.0 mm
05:30 PM 52.3°F11.3°C 50.1°F10.1°C 92% 4.6 mph NW7.4 kmh NW 8.1 mph13.0 kmh 30.16 in1021.3 mb - 0.00 in0.0 mm 0.00 in0.0 mm
05:40 PM 52.2°F11.2°C 49.6°F9.8°C 91% 4.6 mph WNW7.4 kmh WNW 11.5 mph18.5 kmh 30.17 in1021.7 mb - 0.00 in0.0 mm 0.00 in0.0 mm
05:50 PM 52.0°F11.1°C 49.7°F9.8°C 92% 5.8 mph WNW9.3 kmh WNW 11.5 mph18.5 kmh 30.17 in1021.7 mb - 0.00 in0.0 mm 0.00 in0.0 mm
06:00 PM 51.9°F11.1°C 49.6°F9.8°C 92% 6.9 mph NW11.1 kmh NW 11.5 mph18.5 kmh 30.17 in1021.7 mb - 0.00 in0.0 mm 0.00 in0.0 mm
06:10 PM 51.8°F11.0°C 49.3°F9.6°C 91% 8.1 mph NW13.0 kmh NW 13.8 mph22.2 kmh 30.18 in1022.0 mb - 0.00 in0.0 mm 0.00 in0.0 mm
06:20 PM 51.8°F11.0°C 49.3°F9.6°C 91% 6.9 mph NW11.1 kmh NW 11.5 mph18.5 kmh 30.18 in1022.0 mb - 0.00 in0.0 mm 0.00 in0.0 mm
06:30 PM 51.6°F10.9°C 49.1°F9.5°C 91% 2.3 mph NW3.7 kmh NW 5.8 mph9.3 kmh 30.19 in1022.4 mb - 0.00 in0.0 mm 0.00 in0.0 mm
06:40 PM 51.4°F10.8°C 49.2°F9.6°C 92% 3.5 mph NW5.6 kmh NW 6.9 mph11.1 kmh 30.20 in1022.7 mb - 0.00 in0.0 mm 0.00 in0.0 mm
06:50 PM 51.3°F10.7°C 49.1°F9.5°C 92% 3.5 mph NW5.6 kmh NW 5.8 mph9.3 kmh 30.20 in1022.7 mb - 0.00 in0.0 mm 0.00 in0.0 mm
07:00 PM 51.1°F10.6°C 48.9°F9.4°C 92% 4.6 mph NW7.4 kmh NW 8.1 mph13.0 kmh 30.20 in1022.7 mb - 0.00 in0.0 mm 0.00 in0.0 mm
07:10 PM 50.9°F10.5°C 49.0°F9.4°C 93% 5.8 mph NW9.3 kmh NW 8.1 mph13.0 kmh 30.21 in1023.0 mb - 0.00 in0.0 mm 0.00 in0.0 mm
07:20 PM 50.7°F10.4°C 48.7°F9.3°C 93% 5.8 mph NW9.3 kmh NW 9.2 mph14.8 kmh 30.21 in1023.0 mb - 0.00 in0.0 mm 0.00 in0.0 mm
07:30 PM 50.4°F10.2°C 48.5°F9.2°C 93% 5.8 mph NW9.3 kmh NW 8.1 mph13.0 kmh 30.21 in1023.0 mb - 0.00 in0.0 mm 0.00 in0.0 mm
07:40 PM 50.3°F10.2°C 48.4°F9.1°C 93% 2.3 mph NW3.7 kmh NW 4.6 mph7.4 kmh 30.22 in1023.4 mb - 0.00 in0.0 mm 0.00 in0.0 mm
07:50 PM 50.3°F10.2°C 48.3°F9.1°C 93% 4.6 mph NW7.4 kmh NW 8.1 mph13.0 kmh 30.22 in1023.4 mb - 0.00 in0.0 mm 0.00 in0.0 mm
08:00 PM 50.2°F10.1°C 48.3°F9.1°C 93% 4.6 mph NW7.4 kmh NW 8.1 mph13.0 kmh 30.23 in1023.7 mb - 0.00 in0.0 mm 0.00 in0.0 mm
08:10 PM 50.1°F10.1°C 47.9°F8.8°C 92% 6.9 mph NW11.1 kmh NW 11.5 mph18.5 kmh 30.24 in1024.0 mb - 0.00 in0.0 mm 0.00 in0.0 mm
08:20 PM 50.0°F10.0°C 47.8°F8.8°C 92% 4.6 mph NW7.4 kmh NW 8.1 mph13.0 kmh 30.25 in1024.4 mb - 0.00 in0.0 mm 0.00 in0.0 mm
08:30 PM 49.9°F9.9°C 47.7°F8.7°C 92% 8.1 mph NW13.0 kmh NW 11.5 mph18.5 kmh 30.25 in1024.4 mb - 0.00 in0.0 mm 0.00 in0.0 mm
08:40 PM 49.7°F9.8°C 47.5°F8.6°C 92% 6.9 mph NW11.1 kmh NW 10.4 mph16.7 kmh 30.24 in1024.0 mb - 0.00 in0.0 mm 0.00 in0.0 mm
08:50 PM 49.5°F9.7°C 47.3°F8.5°C 92% 6.9 mph NW11.1 kmh NW 9.2 mph14.8 kmh 30.24 in1024.0 mb - 0.00 in0.0 mm 0.00 in0.0 mm
09:00 PM 49.3°F9.6°C 47.1°F8.4°C 92% 5.8 mph NW9.3 kmh NW 11.5 mph18.5 kmh 30.24 in1024.0 mb - 0.00 in0.0 mm 0.00 in0.0 mm
09:10 PM 49.2°F9.6°C 47.0°F8.3°C 92% 3.5 mph NNW5.6 kmh NNW 6.9 mph11.1 kmh 30.25 in1024.4 mb - 0.00 in0.0 mm 0.00 in0.0 mm
09:20 PM 48.9°F9.4°C 46.7°F8.2°C 92% 4.6 mph NNW7.4 kmh NNW 6.9 mph11.1 kmh 30.24 in1024.0 mb - 0.00 in0.0 mm 0.00 in0.0 mm
09:30 PM 48.7°F9.3°C 46.5°F8.1°C 92% 1.2 mph NNW1.9 kmh NNW 2.3 mph3.7 kmh 30.25 in1024.4 mb - 0.00 in0.0 mm 0.00 in0.0 mm
09:40 PM 48.5°F9.2°C 46.3°F7.9°C 92% 2.3 mph NW3.7 kmh NW 4.6 mph7.4 kmh 30.26 in1024.7 mb - 0.00 in0.0 mm 0.00 in0.0 mm
09:50 PM 48.2°F9.0°C 46.0°F7.8°C 92% Calm Calm 4.6 mph7.4 kmh 30.26 in1024.7 mb - 0.00 in0.0 mm 0.00 in0.0 mm
10:00 PM 48.1°F8.9°C 46.2°F7.9°C 93% Calm Calm -- 30.26 in1024.7 mb - 0.00 in0.0 mm 0.00 in0.0 mm
10:10 PM 47.8°F8.8°C 45.9°F7.7°C 93% Calm Calm -- 30.27 in1025.1 mb - 0.00 in0.0 mm 0.00 in0.0 mm
10:20 PM 47.5°F8.6°C 45.6°F7.6°C 93% Calm Calm -- 30.27 in1025.1 mb - 0.00 in0.0 mm 0.00 in0.0 mm
10:30 PM 47.7°F8.7°C 45.8°F7.7°C 93% Calm Calm 1.2 mph1.9 kmh 30.27 in1025.1 mb - 0.00 in0.0 mm 0.00 in0.0 mm
10:40 PM 47.7°F8.7°C 45.8°F7.7°C 93% 2.3 mph NW3.7 kmh NW 2.3 mph3.7 kmh 30.27 in1025.1 mb - 0.00 in0.0 mm 0.00 in0.0 mm
10:50 PM 47.7°F8.7°C 45.8°F7.7°C 93% 3.5 mph NW5.6 kmh NW 5.8 mph9.3 kmh 30.27 in1025.1 mb - 0.00 in0.0 mm 0.00 in0.0 mm
11:00 PM 47.6°F8.7°C 45.7°F7.6°C 93% 3.5 mph NW5.6 kmh NW 4.6 mph7.4 kmh 30.27 in1025.1 mb - 0.00 in0.0 mm 0.00 in0.0 mm
11:10 PM 47.4°F8.6°C 45.5°F7.5°C 93% Calm Calm 1.2 mph1.9 kmh 30.27 in1025.1 mb - 0.00 in0.0 mm 0.00 in0.0 mm
11:20 PM 47.1°F8.4°C 45.2°F7.3°C 93% 2.3 mph NW3.7 kmh NW 4.6 mph7.4 kmh 30.27 in1025.1 mb - 0.00 in0.0 mm 0.00 in0.0 mm
11:30 PM 46.9°F8.3°C 45.0°F7.2°C 93% 2.3 mph NW3.7 kmh NW 2.3 mph3.7 kmh 30.28 in1025.4 mb - 0.00 in0.0 mm 0.00 in0.0 mm
11:40 PM 46.7°F8.2°C 45.1°F7.3°C 94% 3.5 mph NW5.6 kmh NW 5.8 mph9.3 kmh 30.29 in1025.7 mb - 0.00 in0.0 mm 0.00 in0.0 mm
11:50 PM 46.4°F8.0°C 44.8°F7.1°C 94% 2.3 mph NW3.7 kmh NW 5.8 mph9.3 kmh 30.29 in1025.7 mb - 0.00 in0.0 mm 0.00 in0.0 mm